createdAt,value
2023-01-29T00:01:35.687Z,22.98
2023-01-29T00:04:02.441Z,23.88
2023-01-29T00:06:29.150Z,23.67
2023-01-29T00:08:55.815Z,22.27
2023-01-29T00:11:24.082Z,23.88
2023-01-29T00:13:51.838Z,22.63
2023-01-29T00:16:19.166Z,22.55
2023-01-29T00:18:46.005Z,22.73
2023-01-29T00:21:15.809Z,23.80
2023-01-29T00:23:43.114Z,23.73
2023-01-29T00:26:10.793Z,21.80
2023-01-29T00:28:37.520Z,22.75
2023-01-29T00:31:12.093Z,21.30
2023-01-29T00:33:38.820Z,21.92
2023-01-29T00:36:06.857Z,25.15
2023-01-29T00:38:34.620Z,23.15
2023-01-29T00:41:32.915Z,24.88
2023-01-29T00:44:19.337Z,25.70
2023-01-29T00:46:46.364Z,24.58
2023-01-29T00:49:13.020Z,26.45
2023-01-29T00:51:39.933Z,25.90
2023-01-29T00:54:06.967Z,28.27
2023-01-29T00:56:37.482Z,25.60
2023-01-29T00:59:04.846Z,24.40
2023-01-29T01:01:50.291Z,23.48
2023-01-29T01:04:16.939Z,23.52
2023-01-29T01:06:43.881Z,23.63
2023-01-29T01:09:32.811Z,23.55
2023-01-29T01:12:01.967Z,24.65
2023-01-29T01:14:28.582Z,24.17
2023-01-29T01:16:55.287Z,21.50
2023-01-29T01:19:21.911Z,23.33
2023-01-29T01:21:48.574Z,24.10
2023-01-29T01:24:15.438Z,22.48
2023-01-29T01:26:44.700Z,21.73
2023-01-29T01:29:11.444Z,20.70
2023-01-29T01:31:38.187Z,18.80
2023-01-29T01:34:04.924Z,20.98
2023-01-29T01:36:32.463Z,20.15
2023-01-29T01:38:59.236Z,24.30
2023-01-29T01:41:25.876Z,20.42
2023-01-29T01:43:56.519Z,19.55
2023-01-29T01:46:24.360Z,22.00
2023-01-29T01:48:57.828Z,21.65
2023-01-29T01:51:28.906Z,22.88
2023-01-29T01:54:11.066Z,21.02
2023-01-29T01:56:43.020Z,17.85
2023-01-29T01:59:17.246Z,17.10
2023-01-29T02:01:50.196Z,18.08
2023-01-29T02:04:39.461Z,17.65
2023-01-29T02:07:32.160Z,18.90
2023-01-29T02:10:15.738Z,18.52
2023-01-29T02:12:44.328Z,17.40
2023-01-29T02:15:12.231Z,17.98
2023-01-29T02:17:38.985Z,20.48
2023-01-29T02:20:27.959Z,18.75
2023-01-29T02:22:55.427Z,16.70
2023-01-29T02:25:42.656Z,19.10
2023-01-29T02:28:09.240Z,16.15
2023-01-29T02:30:41.826Z,17.45
2023-01-29T02:33:22.340Z,16.52
2023-01-29T02:36:12.388Z,16.42
2023-01-29T02:39:04.583Z,17.27
2023-01-29T02:41:53.933Z,12.18
2023-01-29T02:44:42.362Z,13.65
2023-01-29T02:47:09.041Z,13.35
2023-01-29T02:49:43.725Z,14.00
2023-01-29T02:52:18.684Z,12.98
2023-01-29T02:54:55.661Z,12.95
2023-01-29T02:57:29.771Z,13.48
2023-01-29T03:00:02.360Z,15.13
2023-01-29T03:02:35.043Z,12.63
2023-01-29T03:05:06.378Z,12.15
2023-01-29T03:07:42.903Z,11.95
2023-01-29T03:10:21.717Z,12.23
2023-01-29T03:12:55.721Z,12.65
2023-01-29T03:15:30.185Z,12.18
2023-01-29T03:20:58.559Z,11.68
2023-01-29T03:23:50.294Z,12.45
2023-01-29T03:26:38.877Z,12.70
2023-01-29T03:29:26.068Z,12.73
2023-01-29T03:32:05.446Z,12.50
2023-01-29T03:34:52.085Z,13.55
2023-01-29T03:37:27.234Z,12.05
2023-01-29T03:39:54.733Z,12.05
2023-01-29T03:42:31.653Z,12.43
2023-01-29T03:45:23.884Z,12.18
2023-01-29T03:47:56.311Z,11.55
2023-01-29T03:50:22.908Z,12.15
2023-01-29T03:52:55.869Z,11.55
2023-01-29T03:55:31.903Z,11.25
2023-01-29T03:58:00.449Z,11.98
2023-01-29T04:00:32.132Z,12.98
2023-01-29T04:03:13.610Z,11.98
2023-01-29T04:05:44.935Z,12.57
2023-01-29T04:08:17.287Z,12.45
2023-01-29T04:10:46.291Z,11.57
2023-01-29T04:13:15.060Z,12.18
2023-01-29T04:15:48.265Z,12.48
2023-01-29T04:18:15.237Z,11.52
2023-01-29T04:20:42.416Z,11.93
2023-01-29T04:23:21.454Z,11.23
2023-01-29T04:26:08.126Z,11.90
2023-01-29T04:28:58.772Z,14.50
2023-01-29T04:31:33.185Z,15.48
2023-01-29T04:37:07.724Z,15.23
2023-01-29T04:39:55.407Z,13.77
2023-01-29T04:42:47.571Z,15.25
2023-01-29T04:45:20.277Z,15.80
2023-01-29T04:48:14.874Z,15.80
2023-01-29T04:51:03.601Z,14.20
2023-01-29T04:53:58.433Z,16.30
2023-01-29T04:57:12.939Z,11.35
2023-01-29T04:59:45.896Z,11.65
2023-01-29T05:02:13.348Z,12.35
2023-01-29T05:04:43.494Z,12.82
2023-01-29T05:07:13.780Z,12.10
2023-01-29T05:09:44.120Z,13.30
2023-01-29T05:12:12.966Z,12.88
2023-01-29T05:14:43.433Z,14.73
2023-01-29T05:17:15.846Z,15.80
2023-01-29T05:19:42.682Z,13.00
2023-01-29T05:22:12.545Z,15.65
2023-01-29T05:24:39.170Z,15.57
2023-01-29T05:27:24.430Z,14.43
2023-01-29T05:29:51.061Z,14.05
2023-01-29T05:32:17.791Z,13.07
2023-01-29T05:34:44.372Z,14.65
2023-01-29T05:37:10.994Z,14.07
2023-01-29T05:39:37.633Z,17.35
2023-01-29T05:42:04.437Z,13.07
2023-01-29T05:44:31.120Z,12.05
2023-01-29T05:46:57.760Z,13.98
2023-01-29T05:49:24.477Z,15.55
2023-01-29T05:51:51.131Z,14.65
2023-01-29T05:54:17.752Z,16.98
2023-01-29T05:56:44.395Z,15.82
2023-01-29T05:59:12.132Z,15.38
2023-01-29T06:01:38.828Z,19.38
2023-01-29T06:04:05.422Z,21.70
2023-01-29T06:06:32.053Z,20.92
2023-01-29T06:08:58.619Z,15.95
2023-01-29T06:11:25.627Z,14.82
2023-01-29T06:13:52.293Z,15.98
2023-01-29T06:16:19.183Z,16.92
2023-01-29T06:18:45.813Z,13.48
2023-01-29T06:21:13.697Z,14.38
2023-01-29T06:23:40.788Z,14.55
2023-01-29T06:26:11.532Z,13.02
2023-01-29T06:28:38.608Z,16.38
2023-01-29T06:33:53.228Z,19.58
2023-01-29T06:36:19.907Z,16.60
2023-01-29T06:38:47.389Z,16.15
2023-01-29T06:41:18.187Z,16.83
2023-01-29T06:43:45.944Z,18.25
2023-01-29T06:46:12.796Z,16.33
2023-01-29T06:48:39.875Z,15.50
2023-01-29T06:51:11.020Z,13.98
2023-01-29T06:53:38.710Z,14.07
2023-01-29T06:56:06.448Z,12.20
2023-01-29T06:58:33.175Z,13.23
2023-01-29T07:01:08.275Z,12.77
2023-01-29T07:03:34.979Z,13.02
2023-01-29T07:06:02.393Z,17.15
2023-01-29T07:08:29.132Z,18.20
2023-01-29T07:11:01.091Z,22.88
2023-01-29T07:13:28.075Z,20.27
2023-01-29T07:15:54.873Z,20.23
2023-01-29T07:18:21.578Z,20.20
2023-01-29T07:20:48.186Z,20.30
2023-01-29T07:23:15.741Z,21.42
2023-01-29T07:25:42.483Z,23.63
2023-01-29T07:28:09.548Z,20.75
2023-01-29T07:30:36.759Z,19.77
2023-01-29T07:33:07.439Z,19.77
2023-01-29T07:35:39.688Z,19.25
2023-01-29T07:38:08.410Z,22.48
2023-01-29T07:40:35.333Z,20.60
2023-01-29T07:43:04.514Z,22.80
2023-01-29T07:45:31.726Z,21.50
2023-01-29T07:47:58.385Z,23.58
2023-01-29T07:50:27.098Z,26.90
2023-01-29T07:52:57.102Z,21.58
2023-01-29T07:55:24.312Z,19.48
2023-01-29T07:58:02.071Z,19.67
2023-01-29T08:00:30.225Z,20.90
2023-01-29T08:03:09.578Z,21.17
2023-01-29T08:05:36.779Z,20.25
2023-01-29T08:08:07.527Z,19.92
2023-01-29T08:10:36.249Z,18.52
2023-01-29T08:13:03.801Z,23.70
2023-01-29T08:15:30.534Z,21.40
2023-01-29T08:20:43.905Z,22.90
2023-01-29T08:23:14.852Z,22.13
2023-01-29T08:25:41.708Z,32.80
2023-01-29T08:28:08.818Z,100.13
2023-01-29T08:30:37.606Z,24.80
2023-01-29T08:33:07.545Z,22.05
2023-01-29T08:35:34.259Z,30.30
2023-01-29T08:38:03.534Z,26.90
2023-01-29T08:40:34.435Z,27.52
2023-01-29T08:43:09.655Z,30.10
2023-01-29T08:45:40.371Z,28.90
2023-01-29T08:48:07.621Z,32.60
2023-01-29T08:50:35.138Z,42.03
2023-01-29T08:53:09.675Z,32.67
2023-01-29T08:58:05.964Z,28.75
2023-01-29T09:00:34.116Z,27.58
2023-01-29T09:03:04.006Z,27.10
2023-01-29T09:05:31.277Z,49.78
2023-01-29T09:07:58.363Z,30.38
2023-01-29T09:10:25.646Z,23.85
2023-01-29T09:12:52.248Z,25.98
2023-01-29T09:15:19.457Z,23.77
2023-01-29T09:17:46.120Z,23.77
2023-01-29T09:20:15.763Z,23.83
2023-01-29T09:22:42.446Z,21.48
2023-01-29T09:25:10.877Z,19.90
2023-01-29T09:27:41.007Z,21.63
2023-01-29T09:30:10.338Z,19.02
2023-01-29T09:32:52.777Z,14.85
2023-01-29T09:35:22.058Z,16.17
2023-01-29T09:37:52.866Z,39.38
2023-01-29T09:40:43.760Z,20.48
2023-01-29T09:43:45.741Z,13.65
2023-01-29T09:46:20.686Z,11.15
2023-01-29T09:48:50.480Z,12.88
2023-01-29T09:51:31.674Z,14.13
2023-01-29T09:54:07.874Z,13.82
2023-01-29T09:56:44.722Z,12.30
2023-01-29T09:59:14.408Z,14.60
2023-01-29T10:02:06.386Z,12.65
2023-01-29T10:04:39.311Z,15.52
2023-01-29T10:07:11.728Z,17.13
2023-01-29T10:09:59.842Z,12.95
2023-01-29T10:13:00.145Z,14.32
2023-01-29T10:15:53.111Z,15.50
2023-01-29T10:18:32.040Z,16.27
2023-01-29T10:21:17.142Z,16.88
2023-01-29T10:24:13.376Z,13.57
2023-01-29T10:26:40.944Z,13.20
2023-01-29T10:29:08.335Z,15.57
2023-01-29T10:31:40.350Z,14.82
2023-01-29T10:34:16.175Z,15.02
2023-01-29T10:36:47.030Z,13.60
2023-01-29T10:39:22.075Z,15.98
2023-01-29T10:42:06.856Z,15.98
2023-01-29T10:47:25.052Z,15.25
2023-01-29T10:50:25.671Z,13.45
2023-01-29T10:53:35.910Z,13.32
2023-01-29T10:56:25.025Z,14.90
2023-01-29T10:59:33.469Z,15.90
2023-01-29T11:02:00.567Z,15.18
2023-01-29T11:04:28.878Z,16.92
2023-01-29T11:06:59.452Z,12.63
2023-01-29T11:09:39.405Z,17.27
2023-01-29T11:12:09.811Z,18.75
2023-01-29T11:14:47.661Z,15.38
2023-01-29T11:17:23.493Z,19.02
2023-01-29T11:19:52.143Z,15.30
2023-01-29T11:22:21.892Z,16.17
2023-01-29T11:25:10.561Z,18.35
2023-01-29T11:27:57.228Z,15.63
2023-01-29T11:30:27.938Z,13.55
2023-01-29T11:33:18.588Z,14.63
2023-01-29T11:35:45.537Z,16.27
2023-01-29T11:38:33.571Z,22.38
2023-01-29T11:41:19.143Z,15.82
2023-01-29T11:43:45.780Z,16.38
2023-01-29T11:46:17.864Z,14.27
2023-01-29T11:48:51.689Z,15.90
2023-01-29T11:51:25.691Z,15.52
2023-01-29T11:53:58.633Z,15.98
2023-01-29T11:56:41.126Z,15.82
2023-01-29T11:59:30.403Z,16.27
2023-01-29T12:02:22.627Z,13.27
2023-01-29T12:04:51.018Z,12.75
2023-01-29T12:07:19.165Z,12.48
2023-01-29T12:09:52.807Z,14.02
2023-01-29T12:12:30.237Z,14.97
2023-01-29T12:15:05.272Z,12.77
2023-01-29T12:17:37.616Z,13.05
2023-01-29T12:20:13.234Z,15.50
2023-01-29T12:22:56.434Z,15.63
2023-01-29T12:25:40.918Z,14.38
2023-01-29T12:28:28.780Z,16.40
2023-01-29T12:31:13.751Z,14.27
2023-01-29T12:34:20.140Z,13.15
2023-01-29T12:37:03.391Z,13.25
2023-01-29T12:39:35.327Z,18.05
2023-01-29T12:42:09.287Z,15.23
2023-01-29T12:44:45.157Z,26.17
2023-01-29T12:47:36.643Z,36.95
2023-01-29T12:50:26.486Z,12.85
2023-01-29T12:52:56.316Z,14.15
2023-01-29T12:55:28.080Z,13.60
2023-01-29T12:58:00.798Z,13.50
2023-01-29T13:00:33.674Z,18.27
2023-01-29T13:03:18.069Z,14.90
2023-01-29T13:05:54.465Z,17.08
2023-01-29T13:08:44.673Z,14.10
2023-01-29T13:11:19.276Z,14.57
2023-01-29T13:13:58.280Z,13.85
2023-01-29T13:16:37.621Z,16.73
2023-01-29T13:19:14.231Z,16.98
2023-01-29T13:21:43.926Z,12.52
2023-01-29T13:24:15.944Z,16.67
2023-01-29T13:26:47.204Z,18.77
2023-01-29T13:29:30.888Z,14.13
2023-01-29T13:32:01.071Z,13.40
2023-01-29T13:34:38.505Z,25.00
2023-01-29T13:37:16.921Z,16.92
2023-01-29T13:39:53.438Z,17.90
2023-01-29T13:42:24.099Z,15.35
2023-01-29T13:44:54.414Z,15.75
2023-01-29T13:47:31.900Z,15.20
2023-01-29T13:50:20.161Z,16.52
2023-01-29T13:53:02.276Z,19.65
2023-01-29T13:55:33.635Z,18.38
2023-01-29T13:58:09.707Z,23.85
2023-01-29T14:00:36.356Z,16.58
2023-01-29T14:03:11.937Z,17.10
2023-01-29T14:05:43.521Z,18.08
2023-01-29T14:08:10.138Z,17.70
2023-01-29T14:10:38.352Z,16.33
2023-01-29T14:13:04.976Z,16.73
2023-01-29T14:15:34.683Z,20.60
2023-01-29T14:18:22.367Z,14.10
2023-01-29T14:20:48.926Z,15.70
2023-01-29T14:23:28.683Z,17.67
2023-01-29T14:25:56.601Z,22.80
2023-01-29T14:28:27.008Z,20.20
2023-01-29T14:30:55.255Z,17.48
2023-01-29T14:33:38.154Z,17.67
2023-01-29T14:36:10.860Z,15.68
2023-01-29T14:38:38.835Z,16.65
2023-01-29T14:41:24.569Z,16.60
2023-01-29T14:43:51.196Z,16.60
2023-01-29T14:46:35.955Z,15.75
2023-01-29T14:49:03.233Z,16.48
2023-01-29T14:51:36.844Z,14.98
2023-01-29T14:54:18.863Z,21.47
2023-01-29T14:56:59.660Z,15.02
2023-01-29T14:59:46.573Z,18.55
2023-01-29T15:02:27.136Z,15.60
2023-01-29T15:04:58.843Z,18.45
2023-01-29T15:07:32.024Z,20.50
2023-01-29T15:10:22.884Z,18.63
2023-01-29T15:13:03.049Z,15.68
2023-01-29T15:15:57.111Z,14.57
2023-01-29T15:18:29.683Z,16.73
2023-01-29T15:21:05.914Z,15.75
2023-01-29T15:23:34.524Z,17.30
2023-01-29T15:26:27.012Z,16.27
2023-01-29T15:29:04.109Z,13.43
2023-01-29T15:31:31.972Z,16.98
2023-01-29T15:34:05.018Z,16.20
2023-01-29T15:36:32.462Z,19.73
2023-01-29T15:39:20.175Z,17.05
2023-01-29T15:41:47.336Z,15.48
2023-01-29T15:44:20.410Z,20.65
2023-01-29T15:46:57.035Z,20.05
2023-01-29T15:49:34.061Z,19.75
2023-01-29T15:52:05.001Z,22.40
2023-01-29T15:54:33.732Z,18.25
2023-01-29T15:57:01.956Z,17.33
2023-01-29T15:59:36.957Z,21.25
2023-01-29T16:02:40.228Z,21.65
2023-01-29T16:05:15.789Z,21.70
2023-01-29T16:07:43.607Z,20.42
2023-01-29T16:10:28.728Z,17.80
2023-01-29T16:12:56.392Z,22.65
2023-01-29T16:15:38.005Z,32.75
2023-01-29T16:18:21.233Z,38.55
2023-01-29T16:20:52.574Z,19.40
2023-01-29T16:23:36.940Z,17.77
2023-01-29T16:26:08.446Z,21.58
2023-01-29T16:28:42.882Z,20.67
2023-01-29T16:31:12.079Z,19.40
2023-01-29T16:33:41.898Z,19.42
2023-01-29T16:36:16.822Z,19.27
2023-01-29T16:38:47.871Z,18.73
2023-01-29T16:41:28.926Z,24.75
2023-01-29T16:44:01.205Z,19.73
2023-01-29T16:46:34.089Z,19.20
2023-01-29T16:49:01.849Z,18.83
2023-01-29T16:51:37.700Z,19.33
2023-01-29T16:54:24.189Z,21.90
2023-01-29T16:57:00.524Z,16.58
2023-01-29T16:59:37.907Z,19.08
2023-01-29T17:02:16.587Z,16.48
2023-01-29T17:04:43.225Z,19.67
2023-01-29T17:07:24.095Z,19.20
2023-01-29T17:09:57.293Z,17.52
2023-01-29T17:12:26.761Z,14.13
2023-01-29T17:14:56.558Z,17.45
2023-01-29T17:17:30.501Z,13.55
2023-01-29T17:19:58.945Z,17.92
2023-01-29T17:22:25.644Z,20.75
2023-01-29T17:24:52.356Z,14.38
2023-01-29T17:27:21.499Z,16.05
2023-01-29T17:29:48.635Z,16.38
2023-01-29T17:32:19.883Z,15.20
2023-01-29T17:34:47.149Z,15.20
2023-01-29T17:37:15.659Z,20.52
2023-01-29T17:39:50.485Z,18.35
2023-01-29T17:42:17.273Z,18.80
2023-01-29T17:44:43.897Z,16.40
2023-01-29T17:47:15.102Z,14.52
2023-01-29T17:49:42.700Z,16.45
2023-01-29T17:52:09.771Z,15.57
2023-01-29T17:54:36.759Z,14.98
2023-01-29T17:57:03.458Z,16.95
2023-01-29T17:59:33.147Z,16.92
2023-01-29T18:01:59.945Z,14.93
2023-01-29T18:04:26.769Z,15.98
2023-01-29T18:06:57.748Z,15.40
2023-01-29T18:09:24.748Z,15.60
2023-01-29T18:11:51.645Z,15.48
2023-01-29T18:14:18.425Z,19.23
2023-01-29T18:16:45.865Z,16.02
2023-01-29T18:19:15.617Z,17.48
2023-01-29T18:21:42.448Z,17.67
2023-01-29T18:24:09.183Z,25.60
2023-01-29T18:26:36.188Z,17.88
2023-01-29T18:29:04.061Z,13.07
2023-01-29T18:31:32.805Z,20.60
2023-01-29T18:33:59.721Z,16.08
2023-01-29T18:36:26.319Z,15.27
2023-01-29T18:38:53.024Z,12.68
2023-01-29T18:41:19.745Z,13.48
2023-01-29T18:43:46.598Z,15.32
2023-01-29T18:46:13.344Z,13.00
2023-01-29T18:48:41.741Z,14.35
2023-01-29T18:51:09.463Z,12.02
2023-01-29T18:53:36.145Z,13.48
2023-01-29T18:56:05.564Z,11.90
2023-01-29T18:58:35.899Z,12.35
2023-01-29T19:01:09.531Z,11.77
2023-01-29T19:03:37.224Z,14.75
2023-01-29T19:06:05.647Z,13.13
2023-01-29T19:08:32.613Z,12.32
2023-01-29T19:11:02.497Z,9.88
2023-01-29T19:13:30.220Z,12.90
2023-01-29T19:15:56.914Z,13.95
2023-01-29T19:18:25.989Z,11.52
2023-01-29T19:20:53.334Z,11.15
2023-01-29T19:23:20.847Z,12.13
2023-01-29T19:25:47.967Z,10.07
2023-01-29T19:28:18.201Z,11.20
2023-01-29T19:30:44.917Z,12.35
2023-01-29T19:33:11.735Z,9.32
2023-01-29T19:35:47.307Z,9.90
2023-01-29T19:38:18.836Z,11.13
2023-01-29T19:40:45.496Z,9.85
2023-01-29T19:43:16.096Z,10.32
2023-01-29T19:45:49.597Z,13.38
2023-01-29T19:48:22.931Z,11.02
2023-01-29T19:50:58.139Z,11.00
2023-01-29T19:53:27.275Z,10.07
2023-01-29T19:56:10.868Z,11.07
2023-01-29T19:58:38.220Z,10.35
2023-01-29T20:01:07.840Z,9.05
2023-01-29T20:03:34.636Z,11.82
2023-01-29T20:06:05.648Z,11.88
2023-01-29T20:08:33.778Z,10.00
2023-01-29T20:11:00.673Z,9.05
2023-01-29T20:13:28.370Z,11.35
2023-01-29T20:15:55.701Z,8.55
2023-01-29T20:18:22.352Z,10.60
2023-01-29T20:20:50.629Z,10.88
2023-01-29T20:23:35.299Z,9.23
2023-01-29T20:26:04.801Z,8.65
2023-01-29T20:28:31.378Z,10.27
2023-01-29T20:30:59.088Z,9.50
2023-01-29T20:33:26.760Z,9.60
2023-01-29T20:35:58.228Z,9.73
2023-01-29T20:38:30.303Z,9.13
2023-01-29T20:41:29.526Z,10.32
2023-01-29T20:43:56.197Z,8.48
2023-01-29T20:46:22.869Z,8.43
2023-01-29T20:48:53.185Z,9.90
2023-01-29T20:51:20.172Z,9.02
2023-01-29T20:53:48.053Z,8.32
2023-01-29T20:56:16.227Z,8.80
2023-01-29T20:58:43.178Z,8.65
2023-01-29T21:01:12.956Z,8.25
2023-01-29T21:03:40.366Z,9.23
2023-01-29T21:06:11.459Z,10.68
2023-01-29T21:08:39.102Z,8.27
2023-01-29T21:11:07.860Z,9.50
2023-01-29T21:13:35.247Z,8.75
2023-01-29T21:16:02.428Z,9.55
2023-01-29T21:18:29.512Z,8.02
2023-01-29T21:20:56.491Z,9.27
2023-01-29T21:23:23.208Z,7.65
2023-01-29T21:25:49.835Z,9.02
2023-01-29T21:28:16.514Z,8.23
2023-01-29T21:30:43.241Z,10.57
2023-01-29T21:33:09.907Z,8.25
2023-01-29T21:35:37.924Z,9.60
2023-01-29T21:38:05.010Z,8.90
2023-01-29T21:40:31.996Z,9.25
2023-01-29T21:43:15.445Z,8.45
2023-01-29T21:45:43.019Z,9.27
2023-01-29T21:48:11.600Z,8.52
2023-01-29T21:50:38.732Z,7.38
2023-01-29T21:53:05.431Z,9.52
2023-01-29T21:55:32.865Z,8.05
2023-01-29T21:58:00.379Z,9.30
2023-01-29T22:00:27.444Z,9.48
2023-01-29T22:02:54.220Z,9.77
2023-01-29T22:05:22.255Z,9.13
2023-01-29T22:07:49.962Z,8.38
2023-01-29T22:10:18.280Z,9.63
2023-01-29T22:12:45.405Z,8.48
2023-01-29T22:15:13.156Z,9.55
2023-01-29T22:17:41.450Z,8.73
2023-01-29T22:20:12.622Z,8.68
2023-01-29T22:22:39.354Z,7.30
2023-01-29T22:25:06.382Z,9.52
2023-01-29T22:27:33.923Z,7.95
2023-01-29T22:30:00.883Z,8.45
2023-01-29T22:32:27.621Z,7.85
2023-01-29T22:34:54.304Z,8.45
2023-01-29T22:37:20.968Z,12.32
2023-01-29T22:39:47.649Z,8.32
2023-01-29T22:42:14.371Z,10.02
2023-01-29T22:44:41.455Z,7.75
2023-01-29T22:47:08.088Z,7.80
2023-01-29T22:49:34.772Z,7.57
2023-01-29T22:52:10.334Z,8.70
2023-01-29T22:54:42.313Z,7.63
2023-01-29T22:57:11.575Z,8.20
2023-01-29T22:59:38.575Z,7.75
2023-01-29T23:02:06.070Z,7.80
2023-01-29T23:04:32.828Z,8.30
2023-01-29T23:06:59.681Z,7.30
2023-01-29T23:09:27.130Z,8.02
2023-01-29T23:11:53.772Z,7.45
2023-01-29T23:14:20.488Z,7.20
2023-01-29T23:16:47.100Z,6.95
2023-01-29T23:19:13.900Z,8.13
2023-01-29T23:21:43.711Z,6.68
2023-01-29T23:24:10.778Z,7.90
2023-01-29T23:26:56.086Z,7.70
2023-01-29T23:29:23.078Z,7.90
2023-01-29T23:31:49.921Z,7.10
2023-01-29T23:34:16.735Z,6.80
2023-01-29T23:36:43.537Z,7.40
2023-01-29T23:39:10.536Z,6.70
2023-01-29T23:41:37.164Z,6.75
2023-01-29T23:44:04.761Z,5.90
2023-01-29T23:46:31.670Z,8.40
2023-01-29T23:48:58.442Z,6.50
2023-01-29T23:51:25.221Z,7.13
2023-01-29T23:53:51.877Z,6.30
2023-01-29T23:56:18.601Z,8.18
2023-01-29T23:58:45.815Z,6.47
